Time;durP1;ratioP1;P1;durP2;ratioP2;P2;SDS_P1;SDS_P2;PMS_P1;PMS_P2;Temp;Humidity;BMP_temperature;BMP_pressure;BME280_temperature;BME280_humidity;BME280_pressure;Samples;Min_cycle;Max_cycle;Signal;HPM_P1;HPM_P2
2023/03/23 00:01:10;;;;;;;4.35;1.00;;;11.80;99.90;;;;;;4998997;28;20179;-86
2023/03/23 00:03:40;;;;;;;2.22;0.90;;;11.70;99.90;;;;;;5016472;28;20167;-87
2023/03/23 00:06:06;;;;;;;2.20;0.80;;;11.80;99.90;;;;;;5016750;28;20194;-86
2023/03/23 00:08:37;;;;;;;2.58;0.75;;;11.90;99.90;;;;;;5017060;28;20254;-89
2023/03/23 00:11:22;;;;;;;2.53;1.20;;;11.90;99.90;;;;;;4999940;28;20614;-88
2023/03/23 00:13:53;;;;;;;1.73;0.90;;;11.90;99.90;;;;;;5013682;28;20508;-89
2023/03/23 00:16:28;;;;;;;1.35;0.70;;;11.80;99.90;;;;;;5017388;28;20164;-85
2023/03/23 00:18:55;;;;;;;2.40;0.90;;;11.80;99.90;;;;;;4998863;28;20203;-87
2023/03/23 00:21:33;;;;;;;1.25;0.90;;;11.80;99.90;;;;;;5017206;28;20238;-92
2023/03/23 00:24:15;;;;;;;3.05;0.80;;;11.80;99.90;;;;;;5016912;28;20247;-88
2023/03/23 00:26:44;;;;;;;1.02;0.80;;;11.80;99.90;;;;;;5015786;28;20164;-86
2023/03/23 00:29:20;;;;;;;2.80;0.88;;;11.70;99.90;;;;;;5015742;28;20614;-86
2023/03/23 00:31:47;;;;;;;1.50;0.90;;;11.70;99.90;;;;;;5016358;28;20669;-88
2023/03/23 00:34:19;;;;;;;1.92;0.80;;;11.60;99.90;;;;;;4998168;28;20218;-86
2023/03/23 00:36:48;;;;;;;2.40;1.10;;;11.60;99.90;;;;;;5015843;28;20195;-85
2023/03/23 00:39:16;;;;;;;2.08;0.95;;;11.50;99.90;;;;;;5015443;28;20230;-84
2023/03/23 00:41:45;;;;;;;2.22;1.02;;;11.50;99.90;;;;;;5015434;28;20194;-86
2023/03/23 00:44:16;;;;;;;1.75;1.00;;;11.40;99.90;;;;;;5015609;28;20314;-86
2023/03/23 00:46:48;;;;;;;2.40;1.10;;;11.40;99.90;;;;;;5016664;28;20174;-94
2023/03/23 00:49:16;;;;;;;1.80;0.80;;;11.40;99.90;;;;;;4998832;28;20262;-85
2023/03/23 00:51:42;;;;;;;2.42;1.00;;;11.50;99.90;;;;;;5016231;28;20543;-93
2023/03/23 00:54:09;;;;;;;3.60;1.27;;;11.40;99.90;;;;;;5016755;28;20179;-89
2023/03/23 00:56:36;;;;;;;2.50;1.38;;;11.40;99.90;;;;;;5015605;28;20274;-86
2023/03/23 00:59:02;;;;;;;2.10;1.05;;;11.40;99.90;;;;;;5004906;28;20215;-85
2023/03/23 01:01:29;;;;;;;3.10;1.10;;;11.30;99.90;;;;;;4996443;28;20176;-92
2023/03/23 01:04:00;;;;;;;1.63;1.10;;;11.30;99.90;;;;;;4995847;28;20315;-87
2023/03/23 01:06:30;;;;;;;2.78;1.02;;;11.20;99.90;;;;;;4995651;28;20510;-87
2023/03/23 01:08:57;;;;;;;7.32;1.67;;;11.20;99.90;;;;;;4978684;28;20184;-88
2023/03/23 01:11:23;;;;;;;1.50;1.00;;;11.20;99.90;;;;;;4995497;28;20262;-86
2023/03/23 01:13:49;;;;;;;4.78;1.23;;;11.10;99.90;;;;;;4995351;28;20180;-83
2023/03/23 01:16:16;;;;;;;1.17;0.98;;;11.10;99.90;;;;;;4978077;28;20180;-86
2023/03/23 01:18:42;;;;;;;3.70;1.10;;;11.10;99.90;;;;;;4995696;28;20200;-91
2023/03/23 01:21:17;;;;;;;2.70;1.20;;;11.10;99.90;;;;;;4995421;28;20208;-86
2023/03/23 01:23:44;;;;;;;1.90;1.40;;;11.10;99.90;;;;;;4995498;28;20175;-88
2023/03/23 01:26:19;;;;;;;3.40;1.20;;;11.10;99.90;;;;;;4995407;28;20168;-86
2023/03/23 01:28:44;;;;;;;4.47;1.30;;;11.10;99.90;;;;;;5002661;28;20264;-84
2023/03/23 01:31:14;;;;;;;3.67;1.40;;;11.00;99.90;;;;;;5014430;28;20199;-86
2023/03/23 01:33:40;;;;;;;4.47;1.55;;;11.00;99.90;;;;;;5490700;22;20405;-81
2023/03/23 01:36:11;;;;;;;3.35;1.20;;;11.10;99.90;;;;;;5012257;28;20333;-81
2023/03/23 01:38:36;;;;;;;4.32;1.40;;;11.10;99.90;;;;;;4996222;28;20190;-85
2023/03/23 01:41:03;;;;;;;1.90;1.60;;;11.00;99.90;;;;;;4996807;28;20175;-93
2023/03/23 01:43:28;;;;;;;5.88;1.58;;;11.00;99.90;;;;;;4996783;28;20609;-85
2023/03/23 01:45:56;;;;;;;2.55;1.30;;;11.00;99.90;;;;;;4996720;28;20183;-88
2023/03/23 01:48:27;;;;;;;2.35;1.20;;;11.00;99.90;;;;;;5014471;28;20602;-85
2023/03/23 01:50:56;;;;;;;4.68;1.65;;;10.90;99.90;;;;;;4996282;28;20183;-85
2023/03/23 01:53:24;;;;;;;3.70;1.50;;;10.90;99.90;;;;;;5012785;28;20218;-84
2023/03/23 01:55:53;;;;;;;3.95;1.67;;;10.90;99.90;;;;;;5032011;28;20274;-86
2023/03/23 01:58:25;;;;;;;3.75;1.70;;;10.90;99.90;;;;;;5034060;28;20159;-86
2023/03/23 02:00:53;;;;;;;4.35;1.30;;;10.90;99.90;;;;;;5033780;28;20216;-84
2023/03/23 02:03:23;;;;;;;3.50;1.40;;;11.00;99.90;;;;;;5032302;28;20175;-85
2023/03/23 02:05:49;;;;;;;4.57;1.33;;;11.00;99.90;;;;;;5015530;28;20178;-84
2023/03/23 02:08:16;;;;;;;1.98;1.50;;;11.00;99.90;;;;;;5033719;28;20175;-83
2023/03/23 02:10:41;;;;;;;2.28;1.27;;;11.00;99.90;;;;;;5033121;28;20163;-83
2023/03/23 02:13:11;;;;;;;4.25;1.27;;;10.90;99.90;;;;;;5033509;28;20182;-84
2023/03/23 02:16:03;;;;;;;2.70;1.55;;;10.90;99.90;;;;;;5033582;28;20220;-84
2023/03/23 02:18:57;;;;;;;2.50;1.30;;;10.90;99.90;;;;;;5029354;28;20194;-83
2023/03/23 02:21:41;;;;;;;2.08;1.25;;;10.90;99.90;;;;;;5033370;28;20183;-84
2023/03/23 02:24:54;;;;;;;2.25;1.50;;;10.90;99.90;;;;;;5033308;28;20277;-84
2023/03/23 02:27:47;;;;;;;3.22;1.73;;;10.90;99.90;;;;;;4959480;29;20251;-84
2023/03/23 02:30:39;;;;;;;3.67;1.55;;;10.90;99.90;;;;;;4959599;28;20177;-84
2023/03/23 02:33:14;;;;;;;5.35;1.80;;;10.80;99.90;;;;;;5025832;28;20230;-84
2023/03/23 02:35:49;;;;;;;3.80;1.52;;;10.80;99.90;;;;;;5039852;28;20736;-84
2023/03/23 02:38:22;;;;;;;2.65;1.55;;;10.80;99.90;;;;;;5039822;28;20609;-84
2023/03/23 02:40:50;;;;;;;3.42;1.40;;;10.80;99.90;;;;;;5039485;28;20264;-84
2023/03/23 02:43:23;;;;;;;3.15;1.50;;;10.80;99.90;;;;;;5021974;28;20210;-84
2023/03/23 02:45:50;;;;;;;3.90;1.52;;;10.70;99.90;;;;;;5039990;28;20500;-84
2023/03/23 02:48:19;;;;;;;2.63;1.45;;;10.70;99.90;;;;;;5022213;28;20209;-83
2023/03/23 02:50:49;;;;;;;2.22;1.10;;;10.70;99.90;;;;;;5021945;28;20227;-84
2023/03/23 02:53:22;;;;;;;1.45;1.30;;;10.60;99.90;;;;;;5022082;28;20525;-84
2023/03/23 02:55:52;;;;;;;6.28;1.63;;;10.60;99.90;;;;;;5039563;28;20166;-83
2023/03/23 02:58:19;;;;;;;2.70;1.30;;;10.60;99.90;;;;;;5039817;28;20501;-84
2023/03/23 03:00:49;;;;;;;2.78;1.60;;;10.70;99.90;;;;;;5039545;28;20202;-84
2023/03/23 03:03:19;;;;;;;2.75;1.40;;;10.70;99.90;;;;;;5039646;28;20190;-84
2023/03/23 03:06:11;;;;;;;2.38;1.40;;;10.70;99.90;;;;;;5039994;28;20158;-85
2023/03/23 03:09:03;;;;;;;2.25;1.17;;;10.70;99.90;;;;;;5039748;28;20186;-84
2023/03/23 03:11:31;;;;;;;2.38;1.23;;;10.70;99.90;;;;;;5017934;28;20269;-84
2023/03/23 03:14:24;;;;;;;1.15;1.05;;;10.70;99.90;;;;;;5039798;28;20166;-84
2023/03/23 03:17:00;;;;;;;2.47;1.48;;;10.70;99.90;;;;;;5028581;28;20273;-83
2023/03/23 03:19:35;;;;;;;4.25;1.35;;;10.70;99.90;;;;;;5039521;28;20256;-84
2023/03/23 03:22:02;;;;;;;2.63;1.70;;;10.70;99.90;;;;;;5039524;28;20158;-85
2023/03/23 03:24:29;;;;;;;2.35;1.40;;;10.70;99.90;;;;;;5039446;28;20171;-87
2023/03/23 03:26:59;;;;;;;1.65;1.20;;;10.70;99.90;;;;;;5021950;28;20174;-85
2023/03/23 03:29:37;;;;;;;2.78;1.40;;;10.80;99.90;;;;;;5039593;28;20170;-88
2023/03/23 03:32:06;;;;;;;5.50;1.60;;;10.80;99.90;;;;;;5039447;28;20170;-86
2023/03/23 03:34:33;;;;;;;3.50;1.40;;;10.80;99.90;;;;;;5039498;28;20257;-84
2023/03/23 03:37:05;;;;;;;4.20;1.50;;;10.90;99.90;;;;;;5037382;28;20261;-91
2023/03/23 03:39:33;;;;;;;3.33;1.27;;;10.80;99.90;;;;;;5018752;28;20206;-84
2023/03/23 03:41:59;;;;;;;5.50;1.63;;;10.90;99.90;;;;;;5036690;28;20179;-88
2023/03/23 03:44:25;;;;;;;2.47;1.27;;;10.90;99.90;;;;;;5036951;28;20174;-85
2023/03/23 03:46:50;;;;;;;4.95;1.58;;;10.90;99.90;;;;;;5037005;28;20605;-86
2023/03/23 03:49:16;;;;;;;3.58;1.30;;;10.90;99.90;;;;;;5018751;28;20558;-85
2023/03/23 03:51:43;;;;;;;3.85;1.65;;;10.90;99.90;;;;;;5019003;28;20224;-83
2023/03/23 03:54:08;;;;;;;5.03;1.42;;;10.90;99.90;;;;;;5036437;28;20897;-84
2023/03/23 03:56:36;;;;;;;3.92;1.52;;;10.90;99.90;;;;;;5018258;28;20214;-91
2023/03/23 03:59:03;;;;;;;2.38;1.55;;;10.90;99.90;;;;;;5018314;28;20233;-86
2023/03/23 04:01:29;;;;;;;1.80;1.50;;;11.00;99.90;;;;;;5017753;28;20182;-84
2023/03/23 04:03:55;;;;;;;2.40;1.50;;;10.90;99.90;;;;;;5018489;28;20566;-88
2023/03/23 04:06:21;;;;;;;2.22;1.42;;;10.90;99.90;;;;;;5018882;28;20182;-90
2023/03/23 04:08:47;;;;;;;3.47;1.40;;;10.90;99.90;;;;;;5036496;28;20166;-85
2023/03/23 04:11:14;;;;;;;3.22;1.38;;;10.90;99.90;;;;;;5035901;28;20189;-85
2023/03/23 04:13:40;;;;;;;4.13;1.60;;;10.80;99.90;;;;;;5018344;28;20179;-88
2023/03/23 04:16:07;;;;;;;2.50;1.58;;;10.80;99.90;;;;;;5036196;28;20660;-83
2023/03/23 04:18:33;;;;;;;4.93;1.40;;;10.90;99.90;;;;;;5036335;28;20159;-92
2023/03/23 04:21:00;;;;;;;2.28;1.40;;;10.90;99.90;;;;;;5017973;28;20218;-85
2023/03/23 04:23:30;;;;;;;3.47;1.40;;;10.80;99.90;;;;;;5018018;28;20197;-85
2023/03/23 04:25:57;;;;;;;5.60;1.67;;;10.80;99.90;;;;;;5035460;28;20179;-85
2023/03/23 04:28:24;;;;;;;2.67;1.73;;;10.70;99.90;;;;;;5035810;28;20839;-87
2023/03/23 04:30:52;;;;;;;2.85;1.55;;;10.70;99.90;;;;;;5018074;28;20627;-86
2023/03/23 04:33:29;;;;;;;3.22;1.80;;;10.70;99.90;;;;;;5035641;28;20196;-89
2023/03/23 04:36:00;;;;;;;3.67;1.63;;;10.70;99.90;;;;;;5033127;28;20320;-82
2023/03/23 04:38:29;;;;;;;2.75;1.73;;;10.70;99.90;;;;;;5034332;28;20265;-84
2023/03/23 04:40:55;;;;;;;3.47;1.73;;;10.70;99.90;;;;;;5035050;28;20217;-91
2023/03/23 04:43:24;;;;;;;2.83;1.70;;;10.70;99.90;;;;;;5034061;28;20178;-85
2023/03/23 04:45:58;;;;;;;3.92;1.70;;;10.70;99.90;;;;;;5035124;28;20224;-89
2023/03/23 04:48:33;;;;;;;2.72;1.88;;;10.70;99.90;;;;;;5034923;28;20166;-85
2023/03/23 04:51:02;;;;;;;6.03;1.75;;;10.70;99.90;;;;;;5034028;28;20177;-82
2023/03/23 04:53:28;;;;;;;2.33;1.52;;;10.70;99.90;;;;;;5035176;28;20170;-88
2023/03/23 04:55:54;;;;;;;3.65;1.70;;;10.80;99.90;;;;;;5033560;28;20695;-86
2023/03/23 04:58:23;;;;;;;2.80;1.63;;;10.70;99.90;;;;;;5033967;28;20182;-84
2023/03/23 05:00:49;;;;;;;3.65;1.70;;;10.80;99.90;;;;;;5032461;28;20846;-84
2023/03/23 05:03:19;;;;;;;4.50;1.60;;;10.80;99.90;;;;;;5031375;28;20183;-87
2023/03/23 05:05:51;;;;;;;5.35;1.50;;;10.70;99.90;;;;;;5033750;28;20586;-84
2023/03/23 05:08:21;;;;;;;3.42;1.73;;;10.80;99.90;;;;;;5033789;28;20265;-86
2023/03/23 05:10:56;;;;;;;3.00;1.75;;;10.80;99.90;;;;;;5033272;28;20213;-85
2023/03/23 05:13:22;;;;;;;3.03;1.52;;;10.80;99.90;;;;;;5034910;28;20162;-83
2023/03/23 05:15:48;;;;;;;3.05;1.42;;;10.80;99.90;;;;;;5033402;28;20624;-85
2023/03/23 05:18:15;;;;;;;3.97;1.75;;;10.80;99.90;;;;;;5034554;28;20612;-83
2023/03/23 05:20:41;;;;;;;3.65;1.50;;;10.70;99.90;;;;;;5033351;28;20238;-87
2023/03/23 05:23:08;;;;;;;2.60;1.60;;;10.70;99.90;;;;;;5034613;28;20236;-86
2023/03/23 05:25:39;;;;;;;3.22;1.15;;;10.80;99.90;;;;;;5033130;28;20182;-85
2023/03/23 05:28:10;;;;;;;5.78;1.40;;;10.80;99.90;;;;;;5034873;28;20159;-85
2023/03/23 05:30:38;;;;;;;3.15;1.40;;;10.80;99.90;;;;;;5034767;28;20163;-85
2023/03/23 05:33:04;;;;;;;4.63;1.67;;;10.90;99.90;;;;;;5033322;28;20606;-89
2023/03/23 05:35:30;;;;;;;1.50;1.25;;;10.80;99.90;;;;;;5034518;28;20245;-88
2023/03/23 05:37:57;;;;;;;2.47;1.58;;;10.80;99.90;;;;;;5016743;28;20188;-88
2023/03/23 05:40:25;;;;;;;3.80;1.88;;;10.80;99.90;;;;;;5017244;28;20238;-86
2023/03/23 05:42:51;;;;;;;3.88;2.20;;;10.80;99.90;;;;;;4996541;28;20183;-84
2023/03/23 05:45:17;;;;;;;3.88;2.55;;;10.80;99.90;;;;;;5014275;28;20179;-86
2023/03/23 05:47:45;;;;;;;5.38;1.92;;;10.80;99.90;;;;;;4996899;28;20185;-86
2023/03/23 05:50:12;;;;;;;3.83;1.80;;;10.80;99.90;;;;;;5014413;28;20187;-85
2023/03/23 05:52:39;;;;;;;7.18;1.95;;;10.70;99.90;;;;;;5014596;28;20171;-85
2023/03/23 05:55:05;;;;;;;4.25;2.10;;;10.70;99.90;;;;;;5014109;28;20237;-86
2023/03/23 05:57:31;;;;;;;3.70;2.10;;;10.70;99.90;;;;;;5013239;28;20320;-85
2023/03/23 05:59:57;;;;;;;4.00;2.33;;;10.60;99.90;;;;;;5019572;28;20274;-86
2023/03/23 06:02:24;;;;;;;4.97;2.38;;;10.60;99.90;;;;;;5013817;28;20179;-86
2023/03/23 06:04:57;;;;;;;6.10;2.30;;;10.50;99.90;;;;;;4996228;28;20187;-92
2023/03/23 06:07:24;;;;;;;3.45;2.00;;;10.60;99.90;;;;;;5012886;28;20538;-85
2023/03/23 06:09:50;;;;;;;3.33;2.10;;;10.70;99.90;;;;;;5013327;28;20163;-86
2023/03/23 06:12:19;;;;;;;5.68;2.10;;;10.70;99.90;;;;;;5013516;28;20258;-85
2023/03/23 06:14:48;;;;;;;4.38;2.00;;;10.70;99.90;;;;;;5013238;28;20489;-85
2023/03/23 06:17:17;;;;;;;2.70;1.80;;;10.70;99.90;;;;;;5012564;28;20218;-87
2023/03/23 06:19:43;;;;;;;5.47;1.70;;;10.80;99.90;;;;;;5013903;28;20191;-92
2023/03/23 06:22:09;;;;;;;3.50;1.90;;;10.80;99.90;;;;;;4996437;28;20194;-85
2023/03/23 06:24:35;;;;;;;2.67;1.73;;;10.80;99.90;;;;;;5013993;28;20172;-87
2023/03/23 06:27:01;;;;;;;3.72;1.73;;;10.80;99.90;;;;;;5013945;28;20186;-87
2023/03/23 06:29:27;;;;;;;3.10;1.50;;;10.80;99.90;;;;;;5025327;28;20178;-86
2023/03/23 06:31:57;;;;;;;3.67;1.50;;;10.80;99.90;;;;;;5034014;28;20206;-91
2023/03/23 06:34:23;;;;;;;2.25;1.23;;;10.90;99.90;;;;;;5034108;28;20217;-88
2023/03/23 06:36:50;;;;;;;3.20;1.15;;;10.80;99.90;;;;;;5016703;28;20191;-90
2023/03/23 06:39:16;;;;;;;1.73;1.13;;;10.90;99.90;;;;;;5033850;28;20220;-87
2023/03/23 06:41:41;;;;;;;2.33;1.20;;;10.90;99.90;;;;;;5033782;28;20250;-85
2023/03/23 06:44:08;;;;;;;2.45;0.90;;;10.90;99.90;;;;;;5033343;28;20171;-89
2023/03/23 06:46:34;;;;;;;3.90;1.00;;;10.90;99.90;;;;;;5016224;28;20186;-85
2023/03/23 06:49:00;;;;;;;1.90;1.30;;;10.90;99.90;;;;;;5033738;28;20273;-88
2023/03/23 06:51:26;;;;;;;2.25;1.05;;;11.00;99.90;;;;;;5033718;28;20645;-90
2023/03/23 06:53:51;;;;;;;1.20;1.00;;;11.00;99.90;;;;;;5033767;28;20217;-89
2023/03/23 06:56:17;;;;;;;2.67;1.50;;;11.00;99.90;;;;;;5033899;28;20181;-88
2023/03/23 06:58:45;;;;;;;1.77;1.17;;;11.00;99.90;;;;;;5034018;28;20594;-91
2023/03/23 07:01:11;;;;;;;1.70;1.10;;;11.00;99.90;;;;;;5015676;28;20179;-87
2023/03/23 07:03:36;;;;;;;2.17;1.20;;;11.00;99.90;;;;;;5032273;28;20224;-89
2023/03/23 07:06:03;;;;;;;1.88;1.17;;;11.10;99.90;;;;;;5032521;28;20179;-90
2023/03/23 07:08:30;;;;;;;2.60;1.20;;;11.10;99.90;;;;;;5032106;28;20276;-94
2023/03/23 07:10:56;;;;;;;2.15;1.20;;;11.20;99.90;;;;;;5014687;28;20225;-87
2023/03/23 07:13:22;;;;;;;1.70;1.15;;;11.30;99.90;;;;;;5035525;28;20218;-88
2023/03/23 07:15:49;;;;;;;3.40;1.02;;;11.30;99.90;;;;;;5036004;28;20213;-91
2023/03/23 07:18:20;;;;;;;1.85;1.25;;;11.40;99.90;;;;;;5037861;28;20171;-91
2023/03/23 07:20:51;;;;;;;2.40;1.13;;;11.40;99.90;;;;;;5019886;28;20218;-86
2023/03/23 07:23:18;;;;;;;2.35;1.25;;;11.50;99.90;;;;;;5037848;28;20186;-90
2023/03/23 07:25:45;;;;;;;1.85;1.10;;;11.50;99.90;;;;;;5037929;28;20260;-86
2023/03/23 07:28:18;;;;;;;2.45;1.00;;;11.60;99.90;;;;;;5035414;28;20178;-87
2023/03/23 07:30:44;;;;;;;1.40;1.13;;;11.70;99.90;;;;;;5017434;28;20162;-92
2023/03/23 07:33:10;;;;;;;3.03;1.35;;;11.80;99.90;;;;;;5000026;28;20179;-93
2023/03/23 07:35:37;;;;;;;2.00;1.17;;;11.70;99.90;;;;;;5012357;28;20231;-93
2023/03/23 07:38:03;;;;;;;1.27;0.80;;;11.80;99.90;;;;;;5017121;28;20179;-89
2023/03/23 07:40:33;;;;;;;1.98;1.10;;;11.80;99.90;;;;;;5016892;28;20214;-88
2023/03/23 07:42:59;;;;;;;3.60;1.20;;;11.80;99.90;;;;;;5017135;28;20171;-88
2023/03/23 07:45:26;;;;;;;1.30;1.17;;;11.80;99.90;;;;;;5015543;28;20625;-90
2023/03/23 07:47:55;;;;;;;1.52;1.10;;;11.80;99.90;;;;;;5017004;28;20190;-92
2023/03/23 07:50:24;;;;;;;2.63;1.00;;;11.80;99.90;;;;;;5016451;28;20156;-87
2023/03/23 07:52:59;;;;;;;2.80;1.10;;;11.80;99.90;;;;;;5015658;28;20186;-85
2023/03/23 07:55:25;;;;;;;1.75;1.10;;;11.90;99.90;;;;;;5015829;28;20191;-90
2023/03/23 07:57:53;;;;;;;2.67;1.10;;;12.00;99.90;;;;;;5017001;28;20221;-88
2023/03/23 08:00:20;;;;;;;1.90;1.13;;;12.00;99.90;;;;;;5015217;28;20273;-87
2023/03/23 08:02:47;;;;;;;3.10;1.00;;;12.00;99.90;;;;;;5015446;28;20175;-85
2023/03/23 08:05:13;;;;;;;1.75;1.05;;;12.00;99.90;;;;;;5017003;28;20183;-94
2023/03/23 08:07:40;;;;;;;2.13;1.25;;;12.10;99.90;;;;;;5015813;28;20322;-88
2023/03/23 08:10:10;;;;;;;1.70;1.20;;;12.10;99.90;;;;;;5016593;28;20179;-88
2023/03/23 08:12:36;;;;;;;3.78;1.30;;;12.20;99.90;;;;;;5015127;28;20171;-88
2023/03/23 08:15:04;;;;;;;2.63;1.20;;;12.30;99.90;;;;;;5016259;28;20182;-89
2023/03/23 08:17:29;;;;;;;2.28;1.48;;;12.40;99.90;;;;;;5015110;28;20190;-90
2023/03/23 08:19:57;;;;;;;4.40;1.10;;;12.40;99.90;;;;;;5016147;28;20207;-89
2023/03/23 08:22:23;;;;;;;1.35;1.00;;;12.50;99.90;;;;;;5015940;28;20164;-92
2023/03/23 08:24:49;;;;;;;3.83;1.38;;;12.60;99.90;;;;;;5015881;28;20180;-87
2023/03/23 08:27:14;;;;;;;1.73;1.00;;;12.60;99.90;;;;;;5015127;28;20225;-93
2023/03/23 08:29:44;;;;;;;1.40;1.00;;;12.60;99.90;;;;;;5028954;28;20190;-88
2023/03/23 08:32:10;;;;;;;2.55;1.20;;;12.50;99.90;;;;;;5034667;28;20178;-91
2023/03/23 08:34:36;;;;;;;2.42;1.27;;;12.60;99.90;;;;;;5034606;28;20229;-87
2023/03/23 08:37:02;;;;;;;3.70;1.35;;;12.60;99.90;;;;;;5035998;28;20186;-94
2023/03/23 08:39:30;;;;;;;2.17;1.33;;;12.60;99.90;;;;;;5035904;28;20238;-87
2023/03/23 08:41:55;;;;;;;1.67;1.10;;;12.60;99.90;;;;;;5035091;28;20151;-86
2023/03/23 08:44:21;;;;;;;2.53;1.13;;;12.60;99.90;;;;;;5034032;28;20182;-92
2023/03/23 08:46:47;;;;;;;1.90;1.15;;;12.60;99.90;;;;;;5036081;28;20250;-89
2023/03/23 08:49:20;;;;;;;4.65;1.50;;;12.60;99.90;;;;;;5034943;28;20269;-88
2023/03/23 08:51:46;;;;;;;2.50;1.00;;;12.70;99.90;;;;;;5035602;28;20304;-85
2023/03/23 08:54:12;;;;;;;1.40;1.10;;;12.70;99.90;;;;;;5034631;28;20205;-85
2023/03/23 08:56:37;;;;;;;2.08;1.33;;;12.60;99.90;;;;;;5035736;28;20643;-90
2023/03/23 08:59:03;;;;;;;3.03;1.20;;;12.70;99.90;;;;;;5026194;28;20618;-89
2023/03/23 09:01:29;;;;;;;3.22;1.05;;;12.80;99.90;;;;;;5014700;28;20178;-90
2023/03/23 09:03:54;;;;;;;5.10;1.25;;;12.90;99.90;;;;;;5015063;28;20215;-89
2023/03/23 09:06:20;;;;;;;4.13;1.00;;;12.90;99.90;;;;;;5014965;28;20614;-86
2023/03/23 09:08:47;;;;;;;1.08;0.93;;;12.90;99.90;;;;;;5015516;28;20190;-86
2023/03/23 09:11:12;;;;;;;1.40;0.93;;;13.00;99.90;;;;;;5015541;28;20164;-87
2023/03/23 09:13:39;;;;;;;1.80;1.10;;;13.00;99.90;;;;;;5015630;28;20182;-90
2023/03/23 09:16:06;;;;;;;1.52;1.20;;;13.00;99.90;;;;;;5015688;28;20186;-92
2023/03/23 09:18:33;;;;;;;2.95;1.17;;;13.10;99.90;;;;;;5015785;28;20552;-88
2023/03/23 09:20:59;;;;;;;2.42;1.30;;;13.20;99.90;;;;;;5014341;28;20211;-87
2023/03/23 09:23:26;;;;;;;1.70;1.08;;;13.30;99.90;;;;;;5014379;28;20595;-91
2023/03/23 09:25:52;;;;;;;6.10;1.98;;;13.30;99.90;;;;;;5015499;28;20568;-91
2023/03/23 09:28:19;;;;;;;1.23;0.93;;;13.30;99.90;;;;;;5017955;28;20175;-85
2023/03/23 09:30:48;;;;;;;2.90;1.10;;;13.30;99.90;;;;;;5035863;28;20224;-91
2023/03/23 09:33:15;;;;;;;2.42;1.20;;;13.40;99.90;;;;;;5033882;28;20178;-92
2023/03/23 09:35:42;;;;;;;2.80;1.40;;;13.40;99.90;;;;;;5033867;28;20221;-90
2023/03/23 09:38:12;;;;;;;2.55;1.13;;;13.50;99.90;;;;;;5035181;28;20174;-85
2023/03/23 09:40:50;;;;;;;4.10;1.10;;;13.60;99.90;;;;;;5034900;28;20202;-86
2023/03/23 09:43:32;;;;;;;2.58;1.20;;;13.60;99.90;;;;;;5035334;28;20189;-91
2023/03/23 09:46:13;;;;;;;2.47;1.27;;;13.70;99.90;;;;;;5017386;28;20217;-85
2023/03/23 09:48:43;;;;;;;2.08;1.10;;;13.70;99.90;;;;;;5016773;28;20269;-85
2023/03/23 09:51:49;;;;;;;3.67;1.13;;;13.70;99.90;;;;;;5016727;28;20620;-83
2023/03/23 09:54:54;;;;;;;3.78;1.27;;;13.70;99.90;;;;;;5035072;28;20178;-88
2023/03/23 09:57:47;;;;;;;1.80;0.80;;;13.60;99.90;;;;;;5035138;28;20166;-87
2023/03/23 10:00:17;;;;;;;3.00;1.30;;;13.60;99.90;;;;;;5034391;28;20206;-93
2023/03/23 10:02:53;;;;;;;3.88;1.38;;;13.60;99.90;;;;;;5035027;28;20163;-95
2023/03/23 10:05:29;;;;;;;2.15;1.15;;;13.60;99.90;;;;;;5016877;28;21015;-87
2023/03/23 10:07:55;;;;;;;4.10;1.40;;;13.60;99.90;;;;;;5034856;28;20158;-92
2023/03/23 10:10:32;;;;;;;2.33;1.17;;;13.60;99.90;;;;;;5034164;28;20225;-91
2023/03/23 10:13:04;;;;;;;5.95;1.75;;;13.70;99.90;;;;;;5017026;28;20181;-85
2023/03/23 10:15:34;;;;;;;3.78;1.27;;;13.60;99.90;;;;;;5034668;28;20201;-86
2023/03/23 10:18:20;;;;;;;3.03;1.30;;;13.70;99.90;;;;;;5034515;28;20201;-93
2023/03/23 10:20:56;;;;;;;5.35;1.42;;;13.70;99.90;;;;;;5034661;28;20713;-91
2023/03/23 10:23:38;;;;;;;2.50;1.40;;;13.70;99.90;;;;;;5034195;28;20162;-88
2023/03/23 10:26:16;;;;;;;5.45;1.25;;;13.70;99.90;;;;;;5034895;28;20177;-90
2023/03/23 10:28:45;;;;;;;1.65;1.10;;;13.70;99.90;;;;;;5034919;28;20261;-88
2023/03/23 10:31:19;;;;;;;2.92;1.30;;;13.60;99.90;;;;;;5016754;28;20178;-90
2023/03/23 10:33:50;;;;;;;2.00;1.08;;;13.60;99.90;;;;;;5016344;28;20183;-90
2023/03/23 10:36:29;;;;;;;3.88;1.20;;;13.60;99.90;;;;;;5034716;28;20173;-93
2023/03/23 10:39:05;;;;;;;6.80;1.05;;;13.70;99.90;;;;;;5035017;28;20232;-86
2023/03/23 10:41:31;;;;;;;2.25;1.20;;;13.60;99.90;;;;;;5034865;28;20163;-88
2023/03/23 10:43:57;;;;;;;3.35;1.00;;;13.70;99.90;;;;;;5033886;28;20167;-87
2023/03/23 10:46:31;;;;;;;2.10;1.00;;;13.60;99.90;;;;;;5017180;28;20179;-87
2023/03/23 10:49:00;;;;;;;3.70;1.20;;;13.60;99.90;;;;;;5038084;28;20285;-92
2023/03/23 10:51:36;;;;;;;6.63;1.27;;;13.70;99.90;;;;;;5020999;28;20178;-87
2023/03/23 10:54:06;;;;;;;3.60;1.38;;;13.60;99.90;;;;;;5038622;28;20268;-89
2023/03/23 10:56:41;;;;;;;2.70;1.10;;;13.60;99.90;;;;;;5021434;28;20201;-91
2023/03/23 10:59:21;;;;;;;5.30;1.30;;;13.60;99.90;;;;;;5038795;28;20232;-93
2023/03/23 11:01:50;;;;;;;3.22;1.23;;;13.60;99.90;;;;;;5020846;28;20585;-90
2023/03/23 11:04:18;;;;;;;5.32;1.63;;;13.60;99.90;;;;;;5020692;28;20186;-86
2023/03/23 11:06:47;;;;;;;3.10;1.33;;;13.60;99.90;;;;;;5021282;28;20543;-89
2023/03/23 11:09:22;;;;;;;4.07;1.48;;;13.70;99.90;;;;;;5020816;28;20214;-87
2023/03/23 11:11:53;;;;;;;5.07;1.45;;;13.70;99.90;;;;;;5037533;28;20209;-87
2023/03/23 11:14:30;;;;;;;5.80;1.23;;;13.70;99.90;;;;;;5020236;28;20179;-87
2023/03/23 11:17:00;;;;;;;3.67;1.40;;;13.80;99.90;;;;;;5020626;28;20273;-88
2023/03/23 11:19:37;;;;;;;4.72;1.48;;;13.90;99.90;;;;;;5020499;28;20712;-92
2023/03/23 11:22:07;;;;;;;5.78;1.40;;;14.00;99.90;;;;;;5038075;28;20537;-92
2023/03/23 11:24:37;;;;;;;3.38;1.17;;;14.10;99.90;;;;;;5037814;28;20171;-83
2023/03/23 11:27:06;;;;;;;2.67;1.30;;;14.40;99.90;;;;;;5038356;28;20175;-94
2023/03/23 11:29:33;;;;;;;2.80;1.10;;;14.50;99.90;;;;;;5005903;28;20622;-89
2023/03/23 11:31:59;;;;;;;3.78;1.33;;;14.60;99.90;;;;;;5017364;28;20640;-85
2023/03/23 11:34:36;;;;;;;4.30;1.48;;;14.60;99.90;;;;;;5017310;28;20306;-89
2023/03/23 11:37:07;;;;;;;4.38;1.30;;;14.80;99.90;;;;;;5000468;28;20171;-92
2023/03/23 11:39:48;;;;;;;3.50;1.05;;;14.90;99.90;;;;;;5017337;28;20191;-85
2023/03/23 11:42:26;;;;;;;8.45;1.73;;;15.10;99.90;;;;;;4999480;28;20174;-88
2023/03/23 11:44:52;;;;;;;7.03;1.60;;;15.20;99.90;;;;;;5017460;28;20256;-84
2023/03/23 11:47:27;;;;;;;5.75;1.77;;;15.20;99.90;;;;;;5017245;28;20259;-86
2023/03/23 11:49:58;;;;;;;5.47;1.27;;;15.30;99.90;;;;;;4999560;28;20554;-88
2023/03/23 11:52:50;;;;;;;6.90;1.77;;;15.50;99.90;;;;;;5017497;28;20185;-86
2023/03/23 11:55:23;;;;;;;7.05;2.00;;;15.80;99.90;;;;;;5017581;28;20175;-88
2023/03/23 11:57:49;;;;;;;9.18;1.95;;;15.80;99.90;;;;;;4999273;28;20518;-89
2023/03/23 12:00:21;;;;;;;5.13;1.55;;;15.90;99.90;;;;;;5018297;28;20263;-91
2023/03/23 12:03:25;;;;;;;8.05;2.42;;;15.80;99.90;;;;;;5037082;28;20159;-89
2023/03/23 12:06:10;;;;;;;4.70;1.30;;;16.00;99.90;;;;;;5036463;28;20197;-86
2023/03/23 12:08:48;;;;;;;7.78;2.03;;;15.80;99.90;;;;;;5018865;28;20182;-83
2023/03/23 12:11:27;;;;;;;4.93;1.40;;;15.60;99.90;;;;;;5036708;28;20170;-87
2023/03/23 12:14:04;;;;;;;5.28;1.60;;;15.70;99.90;;;;;;5036226;28;20240;-85
2023/03/23 12:17:00;;;;;;;8.63;1.70;;;15.70;99.90;;;;;;5035789;28;20170;-86
2023/03/23 12:19:45;;;;;;;6.80;1.83;;;15.80;99.90;;;;;;5001264;28;20210;-92
2023/03/23 12:22:20;;;;;;;6.50;2.20;;;16.10;99.90;;;;;;5018675;28;20537;-84
2023/03/23 12:25:12;;;;;;;5.07;1.23;;;16.40;99.90;;;;;;5035808;28;20194;-90
2023/03/23 12:27:41;;;;;;;3.85;1.45;;;16.90;99.90;;;;;;5018025;28;20174;-87
2023/03/23 12:30:15;;;;;;;5.97;1.42;;;17.00;99.90;;;;;;5035457;28;20213;-86
2023/03/23 12:32:54;;;;;;;4.82;1.50;;;17.00;99.90;;;;;;5035989;28;20617;-84
2023/03/23 12:35:26;;;;;;;3.80;1.38;;;17.00;99.90;;;;;;5035453;28;20241;-84
2023/03/23 12:38:13;;;;;;;5.15;1.63;;;17.20;99.90;;;;;;5035976;28;20173;-86
2023/03/23 12:41:16;;;;;;;8.73;1.65;;;17.20;99.90;;;;;;5035809;28;20301;-85
2023/03/23 12:43:52;;;;;;;7.03;1.33;;;16.60;99.90;;;;;;5017769;28;20265;-92
2023/03/23 12:46:31;;;;;;;6.57;1.70;;;16.40;99.90;;;;;;5017921;28;20628;-87
2023/03/23 12:49:13;;;;;;;4.35;1.40;;;16.10;99.90;;;;;;5017995;28;20210;-84
2023/03/23 12:51:57;;;;;;;7.38;1.65;;;16.10;99.90;;;;;;5035520;28;20177;-86
2023/03/23 12:54:51;;;;;;;5.85;1.63;;;16.10;99.90;;;;;;5035666;28;20595;-95
2023/03/23 12:57:36;;;;;;;5.28;1.38;;;15.80;99.90;;;;;;5017854;28;20186;-95
2023/03/23 13:00:12;;;;;;;5.88;1.75;;;15.60;99.90;;;;;;5035037;28;20202;-88
2023/03/23 13:02:55;;;;;;;5.65;1.88;;;15.50;99.90;;;;;;5035364;28;20155;-92
2023/03/23 13:05:24;;;;;;;4.60;1.60;;;15.40;99.90;;;;;;5017353;28;20734;-84
2023/03/23 13:08:27;;;;;;;5.90;1.58;;;15.20;99.90;;;;;;5035018;28;20174;-92